YBRM Airport Information

Runway Information
Runway 10 Length 8064 ft width 148 ft
Elevation 56 ft Threshold 295 ft Heading 105
Runway 28 Length 8064 ft Width 148 ft
Elevation 22 ft Threshold 689 ft Heading 285
Airport Frequencies
Type ATIS Name ATIS Frequency 126.55 MHZ
Type CTAF Name CTAF Frequency 126 MHZ
Type FSS Name BRISBANE C Frequency 123.9 MHZ
Airport Navaids
Type NDB-DME Name Broome Frequency 320 KHZ
Airport Weather Information & NOTAM
ADDS - METARS form results

(0732 UTC 12 August 2020)
Data provider http://aviationweather.gov/metar/data/
 
METAR text: YBRM 120700Z 24012KT 9999 FEW042 25/15 Q1013
Conditions at: YBRM (BROOME AIRPORT , AU) observed 0700 UTC 12 August 2020
Temperature: 25.0°C (77°F)
Dewpoint: 15.0°C (59°F) [RH = 54%]
Pressure (altimeter): 29.91 inches Hg (1013.0 mb)
Winds: from the WSW (240 degrees) at 14 MPH (12 knots; 6.2 m/s)
Visibility: 6 or more miles (10+ km)
Ceiling: at least 12,000 feet AGL
Clouds: few clouds at 4200 feet AGL
Weather: no significant weather observed at this time

Forecast for: YBRM (BROOME AIRPORT , AU)
Text: TAF YBRM 120505Z 1206/1306 24012KT 9999 BKN030
Forecast period: 0600 UTC 12 August 2020 to 0600 UTC 13 August 2020
Forecast type: FROM: standard forecast or significant change
Winds: from the WSW (240 degrees) at 14 MPH (12 knots; 6.2 m/s)
Visibility: 6 or more miles (10+ km)
Ceiling: 3000 feet AGL
Clouds: broken clouds at 3000 feet AGL
Weather: no significant weather forecast for this period